GABSDIBK

Guest
Details From GABS - Bamako Senou
To DIBK - BOUAKE
Flight Number -
Tags generated
Created
Modified
Stats Distance 334 nm / 619 km
Max Altitude 33,800 ft / 10,302 m
Waypoints 6
Social Downloads 0
Likes 0
Share VATSIM

Download

Looking for another format? Having issues loading an existing format? Contact us
Advertisement - Login to hide

Notes

Basic altitude profile: - Ascent Rate: 2500ft/min - Ascent Speed: 250kts - Cruise Altitude: 35000ft - Cruise Speed: 420kts - Descent Rate: 1500ft/min - Descent Speed: 250kts Options: - Use NATs: yes - Use PACOTS: yes - Use low airways: yes - Use high airways: yes

Route

GABS POTAL G851F EDAMO UG851 BKY DIBK

ID Type Via Altitude Latitude Longitude Leg Dist Tot Dist Heading (true) Name
O GABS APT - 0 ft / 0 m 12.53354˚ -7.94994˚ - 0 nm - Bamako Senou
POTAL FIX - 27,600 ft / 8,412 m 11.39472˚ -7.23556˚ 80 nm 80 nm 148° / 149° -
EDAMO FIX G851F (AWY-LO) 23,500 ft / 7,163 m 10.79444˚ -6.87639˚ 41 nm 122 nm 150° / 150° -
GUREL FIX UG851 (AWY-HI) 33,800 ft / 10,302 m 10.08194˚ -6.45167˚ 49 nm 171 nm 150° / 150° -
BKY VOR UG851 (AWY-HI) 23,500 ft / 7,163 m 7.74728˚ -5.07494˚ 162 nm 333 nm 150° / 150° BOUAKE VOR-DME
O DIBK APT - 0 ft / 0 m 7.73880˚ -5.07367˚ 0 nm 334 nm 172° / 172° BOUAKE

Altitude Profile

Advertisement - Login to hide

Weather


0- 5 10 15 20 25 30 35+ Temperature / ° C

Clouds and Precipitation
Forecast for 2017-12-17 06:00 UTC. Updated 41 minutes ago

Ground ~20,000 ft ~40,000 ft Winds

GABS

Details ICAO GABS (BKO)
Name Bamako Senou
Region Mali
Timezone Africa/Bamako (UTC+0.0)
Stats Elevation 1,246 ft / 380 m (AMSL)
Location 12.533544° -7.949943°
Runways 1
Magnetic Variation 4.160° W

METAR

GABS 170200Z 02005KT 8000 NSC 21/03 Q1015 NOSIG

Decode

TAF

TAF GABS 162300Z 1700/1806 04003G15KT 8000 NSC PROB40 TEMPO 1706/1710 4500 HZ

Decode

Departure Runways

ID Width Length Bearing (true) Bearing (mag) Surface Threshold Offset Overrun Length
06 148 ft / 45 m 8,888 ft / 2,709 m 56.51° 60.67° Asphalt 0 ft / 0 m 327 ft / 100 m
24 148 ft / 45 m 8,888 ft / 2,709 m 236.51° 240.67° Asphalt 0 ft / 0 m 327 ft / 100 m

DIBK

Details ICAO DIBK (BYK)
Name BOUAKE
Region Côte d'Ivoire
Timezone Africa/Abidjan (UTC+0.0)
Stats Elevation 1,230 ft / 375 m (AMSL)
Location 7.738800° -5.073666°
Runways 1
Magnetic Variation 4.357° W

METAR

Not found

TAF

TAF DIBK 161700Z 1618/1718 01006KT 4000 HZ NSC PROB30 1705/1707 3000 BR

Decode

Destination Runways

ID Width Length Bearing (true) Bearing (mag) Surface Threshold Offset Overrun Length
03 148 ft / 45 m 10,872 ft / 3,314 m 24.08° 28.44° Asphalt 0 ft / 0 m 951 ft / 290 m
21 148 ft / 45 m 10,872 ft / 3,314 m 204.08° 208.44° Asphalt 0 ft / 0 m 951 ft / 290 m